sensor_id;sensor_type;location;lat;lon;timestamp;P1;durP1;ratioP1;P2;durP2;ratioP2
6101;SDS011;3081;50.584;7.032;2023-02-22T00:00:12;20.60;;;10.80;;
6101;SDS011;3081;50.584;7.032;2023-02-22T00:02:44;21.20;;;9.37;;
6101;SDS011;3081;50.584;7.032;2023-02-22T00:05:12;21.23;;;9.23;;
6101;SDS011;3081;50.584;7.032;2023-02-22T00:07:44;18.43;;;9.30;;
6101;SDS011;3081;50.584;7.032;2023-02-22T00:10:12;16.30;;;8.53;;
6101;SDS011;3081;50.584;7.032;2023-02-22T00:12:40;19.87;;;9.13;;
6101;SDS011;3081;50.584;7.032;2023-02-22T00:15:09;16.40;;;9.07;;
6101;SDS011;3081;50.584;7.032;2023-02-22T00:17:38;29.67;;;14.67;;
6101;SDS011;3081;50.584;7.032;2023-02-22T00:20:05;18.17;;;9.00;;
6101;SDS011;3081;50.584;7.032;2023-02-22T00:22:34;18.50;;;8.43;;
6101;SDS011;3081;50.584;7.032;2023-02-22T00:25:01;19.13;;;8.97;;
6101;SDS011;3081;50.584;7.032;2023-02-22T00:27:28;20.93;;;8.20;;
6101;SDS011;3081;50.584;7.032;2023-02-22T00:29:55;29.67;;;14.27;;
6101;SDS011;3081;50.584;7.032;2023-02-22T00:32:24;17.70;;;8.40;;
6101;SDS011;3081;50.584;7.032;2023-02-22T00:34:51;33.20;;;15.33;;
6101;SDS011;3081;50.584;7.032;2023-02-22T00:37:18;15.60;;;8.27;;
6101;SDS011;3081;50.584;7.032;2023-02-22T00:39:46;14.57;;;7.50;;
6101;SDS011;3081;50.584;7.032;2023-02-22T00:42:13;15.63;;;7.50;;
6101;SDS011;3081;50.584;7.032;2023-02-22T00:44:40;15.77;;;7.83;;
6101;SDS011;3081;50.584;7.032;2023-02-22T00:47:07;15.70;;;7.90;;
6101;SDS011;3081;50.584;7.032;2023-02-22T00:49:36;14.37;;;7.20;;
6101;SDS011;3081;50.584;7.032;2023-02-22T00:52:04;16.50;;;8.80;;
6101;SDS011;3081;50.584;7.032;2023-02-22T00:54:33;18.00;;;8.40;;
6101;SDS011;3081;50.584;7.032;2023-02-22T00:57:00;13.10;;;7.50;;
6101;SDS011;3081;50.584;7.032;2023-02-22T00:59:27;12.47;;;5.70;;
6101;SDS011;3081;50.584;7.032;2023-02-22T01:01:55;12.80;;;6.80;;
6101;SDS011;3081;50.584;7.032;2023-02-22T01:04:22;11.70;;;6.87;;
6101;SDS011;3081;50.584;7.032;2023-02-22T01:06:50;11.90;;;6.23;;
6101;SDS011;3081;50.584;7.032;2023-02-22T01:09:18;13.77;;;7.40;;
6101;SDS011;3081;50.584;7.032;2023-02-22T01:11:45;10.23;;;6.03;;
6101;SDS011;3081;50.584;7.032;2023-02-22T01:14:12;11.07;;;6.20;;
6101;SDS011;3081;50.584;7.032;2023-02-22T01:16:39;9.97;;;6.20;;
6101;SDS011;3081;50.584;7.032;2023-02-22T01:19:06;15.80;;;8.43;;
6101;SDS011;3081;50.584;7.032;2023-02-22T01:21:33;15.93;;;8.47;;
6101;SDS011;3081;50.584;7.032;2023-02-22T01:24:01;16.13;;;8.27;;
6101;SDS011;3081;50.584;7.032;2023-02-22T01:26:28;12.70;;;7.27;;
6101;SDS011;3081;50.584;7.032;2023-02-22T01:28:55;12.50;;;7.60;;
6101;SDS011;3081;50.584;7.032;2023-02-22T01:31:22;13.37;;;6.63;;
6101;SDS011;3081;50.584;7.032;2023-02-22T01:33:49;17.70;;;7.03;;
6101;SDS011;3081;50.584;7.032;2023-02-22T01:36:17;14.03;;;6.20;;
6101;SDS011;3081;50.584;7.032;2023-02-22T01:38:44;14.67;;;7.70;;
6101;SDS011;3081;50.584;7.032;2023-02-22T01:41:13;13.23;;;7.33;;
6101;SDS011;3081;50.584;7.032;2023-02-22T01:43:42;13.17;;;7.13;;
6101;SDS011;3081;50.584;7.032;2023-02-22T01:46:18;13.40;;;5.77;;
6101;SDS011;3081;50.584;7.032;2023-02-22T01:48:48;11.63;;;6.50;;
6101;SDS011;3081;50.584;7.032;2023-02-22T01:51:18;11.80;;;5.00;;
6101;SDS011;3081;50.584;7.032;2023-02-22T01:53:46;14.20;;;6.23;;
6101;SDS011;3081;50.584;7.032;2023-02-22T01:56:17;12.23;;;6.90;;
6101;SDS011;3081;50.584;7.032;2023-02-22T01:58:47;12.00;;;6.17;;
6101;SDS011;3081;50.584;7.032;2023-02-22T02:01:16;12.73;;;6.88;;
6101;SDS011;3081;50.584;7.032;2023-02-22T02:03:47;11.47;;;6.50;;
6101;SDS011;3081;50.584;7.032;2023-02-22T02:06:15;11.00;;;6.70;;
6101;SDS011;3081;50.584;7.032;2023-02-22T02:08:46;11.20;;;6.63;;
6101;SDS011;3081;50.584;7.032;2023-02-22T02:11:21;11.53;;;5.67;;
6101;SDS011;3081;50.584;7.032;2023-02-22T02:13:50;15.93;;;6.53;;
6101;SDS011;3081;50.584;7.032;2023-02-22T02:16:19;19.50;;;9.25;;
6101;SDS011;3081;50.584;7.032;2023-02-22T02:18:46;15.53;;;9.10;;
6101;SDS011;3081;50.584;7.032;2023-02-22T02:21:37;11.83;;;6.47;;
6101;SDS011;3081;50.584;7.032;2023-02-22T02:27:55;22.03;;;10.70;;
6101;SDS011;3081;50.584;7.032;2023-02-22T02:33:33;13.40;;;6.90;;
6101;SDS011;3081;50.584;7.032;2023-02-22T02:36:03;24.70;;;11.37;;
6101;SDS011;3081;50.584;7.032;2023-02-22T02:38:37;14.03;;;7.80;;
6101;SDS011;3081;50.584;7.032;2023-02-22T02:41:11;15.70;;;7.17;;
6101;SDS011;3081;50.584;7.032;2023-02-22T02:43:44;20.30;;;8.67;;
6101;SDS011;3081;50.584;7.032;2023-02-22T02:46:18;22.87;;;11.17;;
6101;SDS011;3081;50.584;7.032;2023-02-22T02:48:51;30.50;;;13.30;;
6101;SDS011;3081;50.584;7.032;2023-02-22T02:51:21;13.93;;;7.50;;
6101;SDS011;3081;50.584;7.032;2023-02-22T02:53:51;15.43;;;7.73;;
6101;SDS011;3081;50.584;7.032;2023-02-22T02:56:19;16.47;;;7.60;;
6101;SDS011;3081;50.584;7.032;2023-02-22T02:58:48;13.63;;;6.87;;
6101;SDS011;3081;50.584;7.032;2023-02-22T03:01:19;13.77;;;7.10;;
6101;SDS011;3081;50.584;7.032;2023-02-22T03:04:04;13.20;;;6.78;;
6101;SDS011;3081;50.584;7.032;2023-02-22T03:06:58;13.10;;;7.07;;
6101;SDS011;3081;50.584;7.032;2023-02-22T03:09:38;14.67;;;6.23;;
6101;SDS011;3081;50.584;7.032;2023-02-22T03:12:24;16.43;;;8.90;;
6101;SDS011;3081;50.584;7.032;2023-02-22T03:15:02;13.57;;;6.57;;
6101;SDS011;3081;50.584;7.032;2023-02-22T03:17:37;12.90;;;6.97;;
6101;SDS011;3081;50.584;7.032;2023-02-22T03:20:13;11.30;;;7.10;;
6101;SDS011;3081;50.584;7.032;2023-02-22T03:22:47;11.90;;;6.80;;
6101;SDS011;3081;50.584;7.032;2023-02-22T03:25:21;13.20;;;7.10;;
6101;SDS011;3081;50.584;7.032;2023-02-22T03:27:53;11.37;;;5.80;;
6101;SDS011;3081;50.584;7.032;2023-02-22T03:30:26;16.53;;;6.57;;
6101;SDS011;3081;50.584;7.032;2023-02-22T03:33:01;11.30;;;6.03;;
6101;SDS011;3081;50.584;7.032;2023-02-22T03:35:35;15.20;;;6.80;;
6101;SDS011;3081;50.584;7.032;2023-02-22T03:38:05;11.10;;;6.60;;
6101;SDS011;3081;50.584;7.032;2023-02-22T03:40:37;12.50;;;6.90;;
6101;SDS011;3081;50.584;7.032;2023-02-22T03:43:08;14.43;;;7.10;;
6101;SDS011;3081;50.584;7.032;2023-02-22T03:45:39;23.30;;;10.47;;
6101;SDS011;3081;50.584;7.032;2023-02-22T03:48:10;23.93;;;12.00;;
6101;SDS011;3081;50.584;7.032;2023-02-22T03:50:44;35.23;;;14.40;;
6101;SDS011;3081;50.584;7.032;2023-02-22T03:53:12;17.20;;;10.13;;
6101;SDS011;3081;50.584;7.032;2023-02-22T03:55:39;22.10;;;10.10;;
6101;SDS011;3081;50.584;7.032;2023-02-22T03:58:08;19.83;;;9.10;;
6101;SDS011;3081;50.584;7.032;2023-02-22T04:00:37;22.03;;;8.43;;
6101;SDS011;3081;50.584;7.032;2023-02-22T04:03:08;17.73;;;8.63;;
6101;SDS011;3081;50.584;7.032;2023-02-22T04:05:36;15.70;;;7.97;;
6101;SDS011;3081;50.584;7.032;2023-02-22T04:08:04;13.70;;;7.03;;
6101;SDS011;3081;50.584;7.032;2023-02-22T04:10:31;17.57;;;8.50;;
6101;SDS011;3081;50.584;7.032;2023-02-22T04:12:59;12.33;;;7.70;;
6101;SDS011;3081;50.584;7.032;2023-02-22T04:15:25;12.90;;;7.37;;
6101;SDS011;3081;50.584;7.032;2023-02-22T04:17:52;21.83;;;8.93;;
6101;SDS011;3081;50.584;7.032;2023-02-22T04:20:19;20.60;;;9.50;;
6101;SDS011;3081;50.584;7.032;2023-02-22T04:22:49;11.50;;;7.00;;
6101;SDS011;3081;50.584;7.032;2023-02-22T04:25:19;15.63;;;7.63;;
6101;SDS011;3081;50.584;7.032;2023-02-22T04:27:47;19.60;;;8.23;;
6101;SDS011;3081;50.584;7.032;2023-02-22T04:30:15;15.17;;;7.43;;
6101;SDS011;3081;50.584;7.032;2023-02-22T04:32:42;12.67;;;7.47;;
6101;SDS011;3081;50.584;7.032;2023-02-22T04:35:09;24.53;;;12.10;;
6101;SDS011;3081;50.584;7.032;2023-02-22T04:37:37;38.45;;;14.65;;
6101;SDS011;3081;50.584;7.032;2023-02-22T04:40:04;57.07;;;22.10;;
6101;SDS011;3081;50.584;7.032;2023-02-22T04:42:33;29.43;;;13.17;;
6101;SDS011;3081;50.584;7.032;2023-02-22T04:45:00;16.93;;;7.87;;
6101;SDS011;3081;50.584;7.032;2023-02-22T04:47:28;19.30;;;7.90;;
6101;SDS011;3081;50.584;7.032;2023-02-22T04:49:55;20.13;;;7.60;;
6101;SDS011;3081;50.584;7.032;2023-02-22T04:52:24;16.17;;;7.70;;
6101;SDS011;3081;50.584;7.032;2023-02-22T04:54:51;14.47;;;7.20;;
6101;SDS011;3081;50.584;7.032;2023-02-22T04:57:18;13.73;;;7.90;;
6101;SDS011;3081;50.584;7.032;2023-02-22T04:59:47;16.03;;;7.10;;
6101;SDS011;3081;50.584;7.032;2023-02-22T05:02:15;13.93;;;7.77;;
6101;SDS011;3081;50.584;7.032;2023-02-22T05:04:42;19.07;;;9.10;;
6101;SDS011;3081;50.584;7.032;2023-02-22T05:07:09;26.97;;;12.97;;
6101;SDS011;3081;50.584;7.032;2023-02-22T05:09:36;61.53;;;31.77;;
6101;SDS011;3081;50.584;7.032;2023-02-22T05:12:03;23.07;;;10.23;;
6101;SDS011;3081;50.584;7.032;2023-02-22T05:14:30;16.37;;;8.40;;
6101;SDS011;3081;50.584;7.032;2023-02-22T05:16:58;12.50;;;6.93;;
6101;SDS011;3081;50.584;7.032;2023-02-22T05:19:26;14.70;;;8.87;;
6101;SDS011;3081;50.584;7.032;2023-02-22T05:21:54;17.73;;;7.50;;
6101;SDS011;3081;50.584;7.032;2023-02-22T05:24:21;16.00;;;8.10;;
6101;SDS011;3081;50.584;7.032;2023-02-22T05:26:48;14.50;;;8.03;;
6101;SDS011;3081;50.584;7.032;2023-02-22T05:29:17;15.10;;;7.70;;
6101;SDS011;3081;50.584;7.032;2023-02-22T05:31:45;18.30;;;8.20;;
6101;SDS011;3081;50.584;7.032;2023-02-22T05:34:13;16.13;;;7.40;;
6101;SDS011;3081;50.584;7.032;2023-02-22T05:36:40;22.40;;;9.40;;
6101;SDS011;3081;50.584;7.032;2023-02-22T05:39:07;19.60;;;9.40;;
6101;SDS011;3081;50.584;7.032;2023-02-22T05:41:34;21.33;;;11.10;;
6101;SDS011;3081;50.584;7.032;2023-02-22T05:44:00;32.53;;;15.57;;
6101;SDS011;3081;50.584;7.032;2023-02-22T05:46:28;23.50;;;9.93;;
6101;SDS011;3081;50.584;7.032;2023-02-22T05:48:55;17.70;;;8.40;;
6101;SDS011;3081;50.584;7.032;2023-02-22T05:51:23;19.37;;;8.70;;
6101;SDS011;3081;50.584;7.032;2023-02-22T05:53:50;14.67;;;7.73;;
6101;SDS011;3081;50.584;7.032;2023-02-22T05:56:21;14.70;;;7.60;;
6101;SDS011;3081;50.584;7.032;2023-02-22T05:58:49;16.17;;;7.53;;
6101;SDS011;3081;50.584;7.032;2023-02-22T06:01:16;14.07;;;6.77;;
6101;SDS011;3081;50.584;7.032;2023-02-22T06:03:45;14.83;;;6.00;;
6101;SDS011;3081;50.584;7.032;2023-02-22T06:06:13;13.33;;;6.70;;
6101;SDS011;3081;50.584;7.032;2023-02-22T06:08:41;15.70;;;7.20;;
6101;SDS011;3081;50.584;7.032;2023-02-22T06:11:08;12.47;;;6.43;;
6101;SDS011;3081;50.584;7.032;2023-02-22T06:13:36;14.13;;;7.30;;
6101;SDS011;3081;50.584;7.032;2023-02-22T06:16:03;18.17;;;7.87;;
6101;SDS011;3081;50.584;7.032;2023-02-22T06:18:31;17.93;;;8.63;;
6101;SDS011;3081;50.584;7.032;2023-02-22T06:20:58;14.60;;;8.33;;
6101;SDS011;3081;50.584;7.032;2023-02-22T06:23:25;15.13;;;8.00;;
6101;SDS011;3081;50.584;7.032;2023-02-22T06:25:54;15.20;;;7.60;;
6101;SDS011;3081;50.584;7.032;2023-02-22T06:28:21;14.07;;;7.20;;
6101;SDS011;3081;50.584;7.032;2023-02-22T06:30:48;14.77;;;7.27;;
6101;SDS011;3081;50.584;7.032;2023-02-22T06:33:15;12.60;;;7.10;;
6101;SDS011;3081;50.584;7.032;2023-02-22T06:35:42;12.00;;;7.03;;
6101;SDS011;3081;50.584;7.032;2023-02-22T06:38:11;13.27;;;6.50;;
6101;SDS011;3081;50.584;7.032;2023-02-22T06:40:45;14.30;;;7.10;;
6101;SDS011;3081;50.584;7.032;2023-02-22T06:43:13;13.37;;;6.70;;
6101;SDS011;3081;50.584;7.032;2023-02-22T06:45:40;15.77;;;8.52;;
6101;SDS011;3081;50.584;7.032;2023-02-22T06:48:07;17.63;;;8.53;;
6101;SDS011;3081;50.584;7.032;2023-02-22T06:50:34;15.73;;;7.70;;
6101;SDS011;3081;50.584;7.032;2023-02-22T06:53:01;12.60;;;6.70;;
6101;SDS011;3081;50.584;7.032;2023-02-22T06:55:29;28.57;;;14.07;;
6101;SDS011;3081;50.584;7.032;2023-02-22T06:57:57;15.90;;;7.40;;
6101;SDS011;3081;50.584;7.032;2023-02-22T07:00:27;15.60;;;8.50;;
6101;SDS011;3081;50.584;7.032;2023-02-22T07:02:56;15.27;;;8.00;;
6101;SDS011;3081;50.584;7.032;2023-02-22T07:05:24;18.33;;;8.73;;
6101;SDS011;3081;50.584;7.032;2023-02-22T07:07:53;18.80;;;9.40;;
6101;SDS011;3081;50.584;7.032;2023-02-22T07:10:22;23.90;;;9.40;;
6101;SDS011;3081;50.584;7.032;2023-02-22T07:12:51;17.90;;;9.13;;
6101;SDS011;3081;50.584;7.032;2023-02-22T07:15:18;21.70;;;10.90;;
6101;SDS011;3081;50.584;7.032;2023-02-22T07:17:49;21.00;;;10.52;;
6101;SDS011;3081;50.584;7.032;2023-02-22T07:20:16;21.27;;;11.40;;
6101;SDS011;3081;50.584;7.032;2023-02-22T07:22:44;24.60;;;11.80;;
6101;SDS011;3081;50.584;7.032;2023-02-22T07:25:11;29.00;;;13.40;;
6101;SDS011;3081;50.584;7.032;2023-02-22T07:27:39;30.20;;;15.47;;
6101;SDS011;3081;50.584;7.032;2023-02-22T07:30:06;27.37;;;13.87;;
6101;SDS011;3081;50.584;7.032;2023-02-22T07:32:40;34.17;;;11.60;;
6101;SDS011;3081;50.584;7.032;2023-02-22T07:35:12;16.50;;;8.20;;
6101;SDS011;3081;50.584;7.032;2023-02-22T07:37:40;15.40;;;6.20;;
6101;SDS011;3081;50.584;7.032;2023-02-22T07:40:08;12.53;;;6.37;;
6101;SDS011;3081;50.584;7.032;2023-02-22T07:42:48;14.27;;;5.33;;
6101;SDS011;3081;50.584;7.032;2023-02-22T07:45:16;11.67;;;6.10;;
6101;SDS011;3081;50.584;7.032;2023-02-22T07:47:44;17.57;;;6.40;;
6101;SDS011;3081;50.584;7.032;2023-02-22T07:50:13;14.93;;;6.10;;
6101;SDS011;3081;50.584;7.032;2023-02-22T07:52:43;10.97;;;6.20;;
6101;SDS011;3081;50.584;7.032;2023-02-22T07:55:12;11.50;;;5.17;;
6101;SDS011;3081;50.584;7.032;2023-02-22T07:57:40;14.73;;;5.80;;
6101;SDS011;3081;50.584;7.032;2023-02-22T08:00:08;9.17;;;5.50;;
6101;SDS011;3081;50.584;7.032;2023-02-22T08:02:38;9.07;;;5.60;;
6101;SDS011;3081;50.584;7.032;2023-02-22T08:05:05;10.63;;;5.13;;
6101;SDS011;3081;50.584;7.032;2023-02-22T08:07:36;10.83;;;5.73;;
6101;SDS011;3081;50.584;7.032;2023-02-22T08:10:03;13.83;;;5.27;;
6101;SDS011;3081;50.584;7.032;2023-02-22T08:12:31;13.03;;;6.30;;
6101;SDS011;3081;50.584;7.032;2023-02-22T08:14:59;9.90;;;5.80;;
6101;SDS011;3081;50.584;7.032;2023-02-22T08:17:26;9.43;;;5.33;;
6101;SDS011;3081;50.584;7.032;2023-02-22T08:19:52;11.07;;;5.63;;
6101;SDS011;3081;50.584;7.032;2023-02-22T08:22:20;11.70;;;6.70;;
6101;SDS011;3081;50.584;7.032;2023-02-22T08:24:48;9.13;;;4.67;;
6101;SDS011;3081;50.584;7.032;2023-02-22T08:27:21;10.33;;;5.20;;
6101;SDS011;3081;50.584;7.032;2023-02-22T08:29:49;17.63;;;5.80;;
6101;SDS011;3081;50.584;7.032;2023-02-22T08:32:16;9.90;;;4.50;;
6101;SDS011;3081;50.584;7.032;2023-02-22T08:34:43;10.03;;;5.07;;
6101;SDS011;3081;50.584;7.032;2023-02-22T08:37:11;10.07;;;5.30;;
6101;SDS011;3081;50.584;7.032;2023-02-22T08:39:38;16.20;;;5.10;;
6101;SDS011;3081;50.584;7.032;2023-02-22T08:42:07;11.13;;;5.83;;
6101;SDS011;3081;50.584;7.032;2023-02-22T08:44:34;15.13;;;6.30;;
6101;SDS011;3081;50.584;7.032;2023-02-22T08:47:02;13.50;;;5.17;;
6101;SDS011;3081;50.584;7.032;2023-02-22T08:49:29;12.97;;;5.30;;
6101;SDS011;3081;50.584;7.032;2023-02-22T08:51:56;16.70;;;5.27;;
6101;SDS011;3081;50.584;7.032;2023-02-22T08:54:23;12.50;;;5.60;;
6101;SDS011;3081;50.584;7.032;2023-02-22T08:56:50;13.10;;;5.67;;
6101;SDS011;3081;50.584;7.032;2023-02-22T08:59:19;15.60;;;6.97;;
6101;SDS011;3081;50.584;7.032;2023-02-22T09:01:45;13.37;;;6.47;;
6101;SDS011;3081;50.584;7.032;2023-02-22T09:04:12;11.83;;;5.67;;
6101;SDS011;3081;50.584;7.032;2023-02-22T09:06:39;14.83;;;6.50;;
6101;SDS011;3081;50.584;7.032;2023-02-22T09:09:07;12.90;;;6.27;;
6101;SDS011;3081;50.584;7.032;2023-02-22T09:11:34;18.50;;;5.90;;
6101;SDS011;3081;50.584;7.032;2023-02-22T09:14:01;11.70;;;5.23;;
6101;SDS011;3081;50.584;7.032;2023-02-22T09:16:29;12.90;;;5.67;;
6101;SDS011;3081;50.584;7.032;2023-02-22T09:18:56;17.77;;;6.47;;
6101;SDS011;3081;50.584;7.032;2023-02-22T09:21:23;15.43;;;6.30;;
6101;SDS011;3081;50.584;7.032;2023-02-22T09:23:50;16.30;;;5.90;;
6101;SDS011;3081;50.584;7.032;2023-02-22T09:26:18;19.57;;;6.10;;
6101;SDS011;3081;50.584;7.032;2023-02-22T09:28:47;19.63;;;9.13;;
6101;SDS011;3081;50.584;7.032;2023-02-22T09:31:14;16.43;;;6.60;;
6101;SDS011;3081;50.584;7.032;2023-02-22T09:33:42;23.90;;;8.50;;
6101;SDS011;3081;50.584;7.032;2023-02-22T09:36:10;19.13;;;8.30;;
6101;SDS011;3081;50.584;7.032;2023-02-22T09:38:36;17.93;;;5.93;;
6101;SDS011;3081;50.584;7.032;2023-02-22T09:41:07;14.03;;;4.80;;
6101;SDS011;3081;50.584;7.032;2023-02-22T09:43:40;17.05;;;5.78;;
6101;SDS011;3081;50.584;7.032;2023-02-22T09:46:18;14.37;;;6.67;;
6101;SDS011;3081;50.584;7.032;2023-02-22T09:48:57;15.00;;;6.70;;
6101;SDS011;3081;50.584;7.032;2023-02-22T09:51:30;16.70;;;7.63;;
6101;SDS011;3081;50.584;7.032;2023-02-22T09:54:03;25.60;;;8.97;;
6101;SDS011;3081;50.584;7.032;2023-02-22T09:56:31;19.30;;;7.87;;
6101;SDS011;3081;50.584;7.032;2023-02-22T09:59:00;19.83;;;6.17;;
6101;SDS011;3081;50.584;7.032;2023-02-22T10:01:32;15.53;;;6.57;;
6101;SDS011;3081;50.584;7.032;2023-02-22T10:04:07;15.40;;;6.10;;
6101;SDS011;3081;50.584;7.032;2023-02-22T10:06:42;11.20;;;4.73;;
6101;SDS011;3081;50.584;7.032;2023-02-22T10:09:30;14.00;;;5.67;;
6101;SDS011;3081;50.584;7.032;2023-02-22T10:12:02;15.40;;;6.17;;
6101;SDS011;3081;50.584;7.032;2023-02-22T10:14:45;13.37;;;6.37;;
6101;SDS011;3081;50.584;7.032;2023-02-22T10:17:23;15.43;;;7.80;;
6101;SDS011;3081;50.584;7.032;2023-02-22T10:20:05;26.23;;;8.10;;
6101;SDS011;3081;50.584;7.032;2023-02-22T10:22:44;20.57;;;8.37;;
6101;SDS011;3081;50.584;7.032;2023-02-22T10:25:22;16.83;;;7.37;;
6101;SDS011;3081;50.584;7.032;2023-02-22T10:27:53;19.87;;;9.20;;
6101;SDS011;3081;50.584;7.032;2023-02-22T10:30:25;19.92;;;9.25;;
6101;SDS011;3081;50.584;7.032;2023-02-22T10:32:56;36.63;;;17.10;;
6101;SDS011;3081;50.584;7.032;2023-02-22T10:35:32;34.77;;;17.70;;
6101;SDS011;3081;50.584;7.032;2023-02-22T10:38:05;41.97;;;22.47;;
6101;SDS011;3081;50.584;7.032;2023-02-22T10:40:38;19.97;;;11.00;;
6101;SDS011;3081;50.584;7.032;2023-02-22T10:43:08;22.53;;;11.00;;
6101;SDS011;3081;50.584;7.032;2023-02-22T10:45:36;24.27;;;10.87;;
6101;SDS011;3081;50.584;7.032;2023-02-22T10:48:04;20.40;;;11.37;;
6101;SDS011;3081;50.584;7.032;2023-02-22T10:50:37;27.80;;;15.43;;
6101;SDS011;3081;50.584;7.032;2023-02-22T10:53:06;25.07;;;13.90;;
6101;SDS011;3081;50.584;7.032;2023-02-22T10:55:33;25.73;;;13.07;;
6101;SDS011;3081;50.584;7.032;2023-02-22T10:58:02;25.67;;;13.60;;
6101;SDS011;3081;50.584;7.032;2023-02-22T11:00:32;21.37;;;11.40;;
6101;SDS011;3081;50.584;7.032;2023-02-22T11:03:02;37.03;;;13.67;;
6101;SDS011;3081;50.584;7.032;2023-02-22T11:05:41;29.27;;;12.37;;
6101;SDS011;3081;50.584;7.032;2023-02-22T11:08:13;25.10;;;11.23;;
6101;SDS011;3081;50.584;7.032;2023-02-22T11:10:41;30.50;;;15.90;;
6101;SDS011;3081;50.584;7.032;2023-02-22T11:13:15;18.73;;;9.43;;
6101;SDS011;3081;50.584;7.032;2023-02-22T11:15:43;25.48;;;13.00;;
6101;SDS011;3081;50.584;7.032;2023-02-22T11:21:05;21.85;;;11.30;;
6101;SDS011;3081;50.584;7.032;2023-02-22T11:23:34;19.80;;;10.57;;
6101;SDS011;3081;50.584;7.032;2023-02-22T11:26:05;21.83;;;10.97;;
6101;SDS011;3081;50.584;7.032;2023-02-22T11:28:34;35.20;;;22.50;;
6101;SDS011;3081;50.584;7.032;2023-02-22T11:31:09;35.60;;;23.33;;
6101;SDS011;3081;50.584;7.032;2023-02-22T11:33:39;33.33;;;21.57;;
6101;SDS011;3081;50.584;7.032;2023-02-22T11:36:27;15.97;;;8.03;;
6101;SDS011;3081;50.584;7.032;2023-02-22T11:38:56;20.60;;;9.20;;
6101;SDS011;3081;50.584;7.032;2023-02-22T11:41:25;17.67;;;7.93;;
6101;SDS011;3081;50.584;7.032;2023-02-22T11:43:53;18.77;;;8.70;;
6101;SDS011;3081;50.584;7.032;2023-02-22T11:46:38;23.50;;;13.80;;
6101;SDS011;3081;50.584;7.032;2023-02-22T11:49:07;33.87;;;24.50;;
6101;SDS011;3081;50.584;7.032;2023-02-22T11:51:40;37.03;;;22.73;;
6101;SDS011;3081;50.584;7.032;2023-02-22T11:54:26;29.27;;;15.10;;
6101;SDS011;3081;50.584;7.032;2023-02-22T11:57:09;28.40;;;16.57;;
6101;SDS011;3081;50.584;7.032;2023-02-22T11:59:50;47.77;;;31.80;;
6101;SDS011;3081;50.584;7.032;2023-02-22T12:02:37;26.83;;;12.13;;
6101;SDS011;3081;50.584;7.032;2023-02-22T12:05:18;16.93;;;8.00;;
6101;SDS011;3081;50.584;7.032;2023-02-22T12:08:05;15.90;;;7.87;;
6101;SDS011;3081;50.584;7.032;2023-02-22T12:10:46;17.80;;;8.53;;
6101;SDS011;3081;50.584;7.032;2023-02-22T12:13:37;28.93;;;10.70;;
6101;SDS011;3081;50.584;7.032;2023-02-22T12:16:16;19.80;;;8.77;;
6101;SDS011;3081;50.584;7.032;2023-02-22T12:18:55;16.70;;;7.03;;
6101;SDS011;3081;50.584;7.032;2023-02-22T12:21:30;18.40;;;9.43;;
6101;SDS011;3081;50.584;7.032;2023-02-22T12:24:03;35.60;;;17.10;;
6101;SDS011;3081;50.584;7.032;2023-02-22T12:26:38;15.60;;;8.23;;
6101;SDS011;3081;50.584;7.032;2023-02-22T12:29:09;19.40;;;8.90;;
6101;SDS011;3081;50.584;7.032;2023-02-22T12:31:40;18.03;;;8.90;;
6101;SDS011;3081;50.584;7.032;2023-02-22T12:34:12;17.10;;;7.63;;
6101;SDS011;3081;50.584;7.032;2023-02-22T12:36:52;19.53;;;11.83;;
6101;SDS011;3081;50.584;7.032;2023-02-22T12:39:34;21.83;;;9.13;;
6101;SDS011;3081;50.584;7.032;2023-02-22T12:42:06;16.60;;;8.57;;
6101;SDS011;3081;50.584;7.032;2023-02-22T12:44:40;17.27;;;7.30;;
6101;SDS011;3081;50.584;7.032;2023-02-22T12:47:09;18.53;;;7.87;;
6101;SDS011;3081;50.584;7.032;2023-02-22T12:49:43;16.90;;;7.67;;
6101;SDS011;3081;50.584;7.032;2023-02-22T12:52:20;14.30;;;6.80;;
6101;SDS011;3081;50.584;7.032;2023-02-22T12:55:08;20.50;;;7.50;;
6101;SDS011;3081;50.584;7.032;2023-02-22T12:57:41;31.23;;;18.83;;
6101;SDS011;3081;50.584;7.032;2023-02-22T13:00:14;23.07;;;12.00;;
6101;SDS011;3081;50.584;7.032;2023-02-22T13:02:49;25.17;;;11.30;;
6101;SDS011;3081;50.584;7.032;2023-02-22T13:05:21;20.30;;;11.23;;
6101;SDS011;3081;50.584;7.032;2023-02-22T13:07:52;17.07;;;8.43;;
6101;SDS011;3081;50.584;7.032;2023-02-22T13:10:30;22.60;;;9.47;;
6101;SDS011;3081;50.584;7.032;2023-02-22T13:13:12;19.63;;;10.30;;
6101;SDS011;3081;50.584;7.032;2023-02-22T13:15:45;17.10;;;8.73;;
6101;SDS011;3081;50.584;7.032;2023-02-22T13:18:23;20.10;;;9.60;;
6101;SDS011;3081;50.584;7.032;2023-02-22T13:21:01;18.00;;;9.63;;
6101;SDS011;3081;50.584;7.032;2023-02-22T13:23:34;19.37;;;8.80;;
6101;SDS011;3081;50.584;7.032;2023-02-22T13:26:10;18.67;;;9.13;;
6101;SDS011;3081;50.584;7.032;2023-02-22T13:28:45;18.80;;;7.93;;
6101;SDS011;3081;50.584;7.032;2023-02-22T13:31:27;17.03;;;8.30;;
6101;SDS011;3081;50.584;7.032;2023-02-22T13:34:20;24.07;;;11.93;;
6101;SDS011;3081;50.584;7.032;2023-02-22T13:37:00;22.47;;;13.07;;
6101;SDS011;3081;50.584;7.032;2023-02-22T13:39:46;29.60;;;17.67;;
6101;SDS011;3081;50.584;7.032;2023-02-22T13:42:46;19.37;;;11.53;;
6101;SDS011;3081;50.584;7.032;2023-02-22T13:45:38;36.20;;;15.10;;
6101;SDS011;3081;50.584;7.032;2023-02-22T13:48:26;23.30;;;10.33;;
6101;SDS011;3081;50.584;7.032;2023-02-22T13:51:18;27.10;;;12.03;;
6101;SDS011;3081;50.584;7.032;2023-02-22T13:54:00;17.70;;;8.67;;
6101;SDS011;3081;50.584;7.032;2023-02-22T13:56:31;21.40;;;11.13;;
6101;SDS011;3081;50.584;7.032;2023-02-22T13:58:59;23.50;;;10.77;;
6101;SDS011;3081;50.584;7.032;2023-02-22T14:01:43;22.90;;;13.53;;
6101;SDS011;3081;50.584;7.032;2023-02-22T14:04:19;21.93;;;11.90;;
6101;SDS011;3081;50.584;7.032;2023-02-22T14:10:37;19.40;;;9.40;;
6101;SDS011;3081;50.584;7.032;2023-02-22T14:13:15;34.43;;;12.67;;
6101;SDS011;3081;50.584;7.032;2023-02-22T14:18:47;22.30;;;11.57;;
6101;SDS011;3081;50.584;7.032;2023-02-22T14:21:16;21.37;;;11.00;;
6101;SDS011;3081;50.584;7.032;2023-02-22T14:23:45;18.90;;;9.37;;
6101;SDS011;3081;50.584;7.032;2023-02-22T14:26:15;24.37;;;10.53;;
6101;SDS011;3081;50.584;7.032;2023-02-22T14:28:49;26.83;;;13.97;;
6101;SDS011;3081;50.584;7.032;2023-02-22T14:31:20;31.83;;;11.80;;
6101;SDS011;3081;50.584;7.032;2023-02-22T14:33:54;24.17;;;11.47;;
6101;SDS011;3081;50.584;7.032;2023-02-22T14:36:31;27.03;;;14.50;;
6101;SDS011;3081;50.584;7.032;2023-02-22T14:39:05;49.67;;;16.40;;
6101;SDS011;3081;50.584;7.032;2023-02-22T14:41:39;27.17;;;12.80;;
6101;SDS011;3081;50.584;7.032;2023-02-22T14:44:11;39.83;;;19.70;;
6101;SDS011;3081;50.584;7.032;2023-02-22T14:46:42;23.50;;;12.63;;
6101;SDS011;3081;50.584;7.032;2023-02-22T14:49:14;33.90;;;17.20;;
6101;SDS011;3081;50.584;7.032;2023-02-22T14:51:48;33.60;;;16.77;;
6101;SDS011;3081;50.584;7.032;2023-02-22T14:54:23;29.30;;;13.03;;
6101;SDS011;3081;50.584;7.032;2023-02-22T14:56:57;38.20;;;15.57;;
6101;SDS011;3081;50.584;7.032;2023-02-22T14:59:43;30.90;;;15.60;;
6101;SDS011;3081;50.584;7.032;2023-02-22T15:02:31;34.97;;;15.60;;
6101;SDS011;3081;50.584;7.032;2023-02-22T15:05:05;24.50;;;13.17;;
6101;SDS011;3081;50.584;7.032;2023-02-22T15:07:33;24.37;;;12.83;;
6101;SDS011;3081;50.584;7.032;2023-02-22T15:10:10;47.77;;;23.67;;
6101;SDS011;3081;50.584;7.032;2023-02-22T15:12:49;29.10;;;12.33;;
6101;SDS011;3081;50.584;7.032;2023-02-22T15:15:20;32.03;;;15.83;;
6101;SDS011;3081;50.584;7.032;2023-02-22T15:17:53;32.50;;;17.60;;
6101;SDS011;3081;50.584;7.032;2023-02-22T15:20:21;40.30;;;17.90;;
6101;SDS011;3081;50.584;7.032;2023-02-22T15:22:50;27.27;;;13.90;;
6101;SDS011;3081;50.584;7.032;2023-02-22T15:25:23;28.77;;;15.43;;
6101;SDS011;3081;50.584;7.032;2023-02-22T15:27:53;23.43;;;10.00;;
6101;SDS011;3081;50.584;7.032;2023-02-22T15:30:27;19.70;;;9.73;;
6101;SDS011;3081;50.584;7.032;2023-02-22T15:33:10;38.23;;;20.73;;
6101;SDS011;3081;50.584;7.032;2023-02-22T15:35:41;22.37;;;10.80;;
6101;SDS011;3081;50.584;7.032;2023-02-22T15:38:16;19.80;;;9.07;;